Time;durP1;ratioP1;P1;durP2;ratioP2;P2;SDS_P1;SDS_P2;PMS_P1;PMS_P2;Temp;Humidity;BMP_temperature;BMP_pressure;BME280_temperature;BME280_humidity;BME280_pressure;Samples;Min_cycle;Max_cycle;Signal;HPM_P1;HPM_P2
2021/12/06 00:00:57;;;;;;;5.63;3.22;;;;;;;1.50;100.00;100850.28;5083449;28;20043;-50
2021/12/06 00:03:32;;;;;;;7.70;4.05;;;;;;;1.60;100.00;100845.13;5082720;28;20048;-54
2021/12/06 00:05:58;;;;;;;5.82;3.70;;;;;;;1.59;100.00;100850.47;5079461;28;20704;-50
2021/12/06 00:08:23;;;;;;;4.32;3.55;;;;;;;1.66;100.00;100852.47;5082931;28;20123;-48
2021/12/06 00:10:51;;;;;;;9.35;4.25;;;;;;;1.68;100.00;100853.19;5083375;28;20042;-48
2021/12/06 00:13:20;;;;;;;10.73;4.47;;;;;;;1.70;100.00;100851.28;5082195;28;20028;-50
2021/12/06 00:15:48;;;;;;;8.50;5.88;;;;;;;1.79;100.00;100857.53;5081816;28;20058;-50
2021/12/06 00:18:14;;;;;;;6.65;3.92;;;;;;;1.79;100.00;100844.47;5078846;28;20031;-50
2021/12/06 00:20:40;;;;;;;6.95;4.07;;;;;;;1.78;100.00;100845.41;5082412;28;20040;-49
2021/12/06 00:23:05;;;;;;;8.68;4.50;;;;;;;1.78;100.00;100834.13;5080158;28;20481;-52
2021/12/06 00:25:30;;;;;;;6.00;3.20;;;;;;;1.78;100.00;100842.78;5080708;28;20089;-50
2021/12/06 00:27:56;;;;;;;5.85;3.50;;;;;;;1.77;100.00;100845.53;5081915;28;20066;-49
2021/12/06 00:30:21;;;;;;;6.20;4.18;;;;;;;1.72;100.00;100851.13;5084924;28;20028;-50
2021/12/06 00:32:47;;;;;;;10.77;5.60;;;;;;;1.75;100.00;100846.47;5084196;28;20528;-53
2021/12/06 00:35:19;;;;;;;4.65;2.80;;;;;;;1.80;100.00;100846.09;5077736;28;20036;-53
2021/12/06 00:37:55;;;;;;;8.00;3.80;;;;;;;1.79;100.00;100836.63;5074154;28;20028;-52
2021/12/06 00:40:22;;;;;;;8.23;4.85;;;;;;;1.82;100.00;100846.81;5071405;28;20040;-54
2021/12/06 00:42:47;;;;;;;6.38;4.85;;;;;;;1.79;100.00;100844.47;5083111;28;20032;-54
2021/12/06 00:45:13;;;;;;;6.18;4.60;;;;;;;1.78;100.00;100841.97;5072295;28;20399;-53
2021/12/06 00:47:38;;;;;;;13.50;4.40;;;;;;;1.79;100.00;100839.22;5085893;28;20047;-50
2021/12/06 00:50:06;;;;;;;4.95;3.58;;;;;;;1.84;100.00;100834.47;5083184;28;20028;-52
2021/12/06 00:52:31;;;;;;;7.03;4.05;;;;;;;1.84;100.00;100837.06;5087463;28;20549;-48
2021/12/06 00:54:57;;;;;;;5.13;3.50;;;;;;;1.85;100.00;100837.91;5087717;28;20028;-52
2021/12/06 00:57:22;;;;;;;13.65;5.50;;;;;;;1.87;100.00;100828.16;5087289;28;20032;-54
2021/12/06 00:59:48;;;;;;;6.93;4.30;;;;;;;1.88;100.00;100832.41;5086955;28;20040;-53
2021/12/06 01:02:15;;;;;;;15.43;5.38;;;;;;;1.92;100.00;100828.59;5087010;28;20032;-51
2021/12/06 01:04:42;;;;;;;5.50;3.97;;;;;;;1.92;100.00;100829.44;5087579;28;20036;-51
2021/12/06 01:07:08;;;;;;;7.38;4.28;;;;;;;1.92;100.00;100826.81;5078705;28;20515;-52
2021/12/06 01:09:33;;;;;;;8.70;5.20;;;;;;;1.90;100.00;100820.03;5064647;28;20052;-48
2021/12/06 01:11:59;;;;;;;8.68;4.43;;;;;;;1.89;100.00;100803.53;5085585;28;20086;-52
2021/12/06 01:14:25;;;;;;;10.93;5.40;;;;;;;1.84;100.00;100800.47;5081416;28;20046;-51
2021/12/06 01:16:51;;;;;;;9.32;4.68;;;;;;;1.82;100.00;100796.31;5088143;28;20047;-52
2021/12/06 01:19:17;;;;;;;8.05;3.47;;;;;;;1.78;100.00;100784.44;5086674;28;20028;-50
2021/12/06 01:21:49;;;;;;;8.75;4.38;;;;;;;1.72;100.00;100778.75;5083991;28;20370;-51
2021/12/06 01:24:18;;;;;;;7.10;3.38;;;;;;;1.68;100.00;100785.22;5083972;28;20535;-50
2021/12/06 01:39:56;;;;;;;9.13;4.20;;;;;;;1.47;100.00;100816.53;5079297;28;20109;-53
2021/12/06 01:42:21;;;;;;;11.52;3.72;;;;;;;1.46;100.00;100820.09;5086619;28;20032;-53
2021/12/06 01:44:52;;;;;;;5.15;3.47;;;;;;;1.41;100.00;100819.63;5081494;28;20032;-50
2021/12/06 01:47:21;;;;;;;6.00;3.42;;;;;;;1.39;100.00;100803.25;5086192;28;20054;-50
2021/12/06 01:49:50;;;;;;;13.45;5.18;;;;;;;1.39;100.00;100794.59;5082778;28;20384;-51
2021/12/06 01:52:20;;;;;;;5.78;3.97;;;;;;;1.39;100.00;100778.91;5086926;28;20036;-52
2021/12/06 01:54:46;;;;;;;10.93;4.95;;;;;;;1.36;100.00;100782.59;5084942;28;20034;-48
2021/12/06 01:57:12;;;;;;;15.93;4.45;;;;;;;1.26;100.00;100779.06;5086148;28;20028;-50
2021/12/06 01:59:37;;;;;;;8.07;4.22;;;;;;;1.12;100.00;100777.56;5081810;28;20081;-55
2021/12/06 02:02:04;;;;;;;10.32;5.90;;;;;;;1.06;100.00;100781.50;5085925;28;20028;-54
2021/12/06 02:04:36;;;;;;;6.20;4.30;;;;;;;1.04;100.00;100777.34;5084665;28;20034;-52
2021/12/06 02:07:02;;;;;;;;;;;;;;;0.98;100.00;100775.22;5084481;28;20484;-50
2021/12/06 02:09:28;;;;;;;7.28;3.90;;;;;;;0.94;100.00;100786.88;5081392;28;19931;-51
2021/12/06 02:11:55;;;;;;;11.45;3.60;;;;;;;0.89;100.00;100797.66;5080472;28;20485;-48
2021/12/06 02:14:30;;;;;;;6.47;5.00;;;;;;;0.91;100.00;100800.16;5085566;28;20468;-50
2021/12/06 02:17:17;;;;;;;5.32;4.03;;;;;;;0.80;100.00;100795.75;5080616;28;20047;-50
2021/12/06 02:19:47;;;;;;;13.90;4.97;;;;;;;0.65;100.00;100796.03;5068325;28;20435;-49
2021/12/06 02:22:17;;;;;;;9.68;4.55;;;;;;;0.60;100.00;100790.34;5085875;28;20024;-50
2021/12/06 02:24:42;;;;;;;7.65;3.53;;;;;;;0.61;100.00;100789.38;5086181;28;20115;-48
2021/12/06 02:27:10;;;;;;;8.75;3.90;;;;;;;0.60;100.00;100782.50;5086318;28;20563;-50
2021/12/06 02:29:37;;;;;;;8.07;4.03;;;;;;;0.54;100.00;100776.91;5085623;28;20023;-54
2021/12/06 02:32:09;;;;;;;7.32;4.22;;;;;;;0.50;100.00;100768.50;5085106;28;20107;-51
2021/12/06 02:34:35;;;;;;;6.22;3.35;;;;;;;0.49;100.00;100766.00;5080028;28;20024;-50
2021/12/06 02:37:00;;;;;;;5.65;3.53;;;;;;;0.45;100.00;100757.59;5080210;28;20093;-50
2021/12/06 02:39:28;;;;;;;8.23;3.10;;;;;;;0.43;100.00;100768.13;5078951;28;20088;-53
2021/12/06 02:41:54;;;;;;;6.82;3.65;;;;;;;0.39;100.00;100769.34;5082165;28;20194;-51
2021/12/06 02:44:20;;;;;;;7.32;4.35;;;;;;;0.37;100.00;100755.59;5077119;28;20469;-52
2021/12/06 02:46:46;;;;;;;5.07;3.17;;;;;;;0.35;100.00;100757.47;5084094;28;20422;-53
2021/12/06 02:49:12;;;;;;;7.75;4.88;;;;;;;0.32;100.00;100746.47;5083458;28;20088;-51
2021/12/06 02:51:38;;;;;;;8.65;3.65;;;;;;;0.32;100.00;100751.66;5084979;28;20035;-50
2021/12/06 02:54:04;;;;;;;5.45;3.15;;;;;;;0.30;100.00;100753.56;5079335;28;20024;-51
2021/12/06 02:59:13;;;;;;;6.55;3.10;;;;;;;0.19;100.00;100755.22;5080529;28;20039;-49
2021/12/06 03:01:44;;;;;;;8.50;3.20;;;;;;;0.19;100.00;100757.81;5085669;28;20032;-52
2021/12/06 03:04:09;;;;;;;5.28;3.53;;;;;;;0.20;100.00;100761.25;5089257;28;20031;-51
2021/12/06 03:06:36;;;;;;;6.88;3.40;;;;;;;0.20;100.00;100754.25;5080992;28;20028;-54
2021/12/06 03:09:15;;;;;;;4.72;3.05;;;;;;;0.17;100.00;100764.94;5084613;28;20032;-50
2021/12/06 03:11:48;;;;;;;11.13;3.78;;;;;;;0.14;100.00;100746.09;5078228;28;20503;-50
2021/12/06 03:14:18;;;;;;;5.32;3.55;;;;;;;0.13;100.00;100747.88;5082106;28;20040;-51
2021/12/06 03:16:43;;;;;;;5.47;3.22;;;;;;;0.15;100.00;100748.56;5077795;28;20036;-52
2021/12/06 03:19:09;;;;;;;6.47;2.42;;;;;;;0.11;100.00;100751.53;5085821;28;20044;-53
2021/12/06 03:21:35;;;;;;;8.25;2.53;;;;;;;0.10;100.00;100745.47;5081270;28;20047;-53
2021/12/06 03:24:01;;;;;;;5.95;3.42;;;;;;;0.07;100.00;100748.31;5077916;28;20861;-49
2021/12/06 03:26:29;;;;;;;5.80;3.53;;;;;;;0.04;100.00;100758.16;5075671;28;20029;-49
2021/12/06 03:28:55;;;;;;;4.82;3.38;;;;;;;0.01;100.00;100748.78;5068212;28;20036;-53
2021/12/06 03:31:22;;;;;;;6.07;3.50;;;;;;;-0.06;100.00;100744.97;5083506;28;20046;-51
2021/12/06 03:33:50;;;;;;;5.72;3.60;;;;;;;-0.16;100.00;100741.41;5082641;28;20046;-50
2021/12/06 03:36:17;;;;;;;6.97;2.83;;;;;;;-0.25;100.00;100750.75;5080779;28;20044;-50
2021/12/06 03:38:45;;;;;;;9.20;3.88;;;;;;;-0.34;100.00;100746.22;5079812;28;20067;-48
2021/12/06 03:41:12;;;;;;;12.90;3.90;;;;;;;-0.43;100.00;100745.13;5082102;28;20528;-48
2021/12/06 03:43:40;;;;;;;8.57;3.70;;;;;;;-0.50;100.00;100749.13;5084231;28;20600;-51
2021/12/06 03:46:07;;;;;;;3.75;2.60;;;;;;;-0.52;100.00;100733.59;5084134;28;20633;-50
2021/12/06 03:48:32;;;;;;;4.80;2.03;;;;;;;-0.54;100.00;100734.66;5084742;28;20040;-50
2021/12/06 03:50:58;;;;;;;5.35;2.80;;;;;;;-0.57;100.00;100719.25;5076682;28;20534;-48
2021/12/06 03:53:24;;;;;;;7.40;3.10;;;;;;;-0.54;100.00;100706.84;5082499;28;20039;-49
2021/12/06 03:55:49;;;;;;;4.78;3.03;;;;;;;-0.54;100.00;100706.00;5082061;28;20040;-50
2021/12/06 03:58:15;;;;;;;8.88;4.20;;;;;;;-0.49;100.00;100711.69;5084700;28;20406;-52
2021/12/06 04:00:40;;;;;;;7.63;3.47;;;;;;;-0.46;100.00;100701.91;5076923;28;20036;-52
2021/12/06 04:03:07;;;;;;;7.22;2.63;;;;;;;-0.49;100.00;100704.75;5083382;28;20036;-52
2021/12/06 04:05:32;;;;;;;8.30;2.75;;;;;;;-0.53;100.00;100707.69;5083118;28;20056;-51
2021/12/06 04:07:58;;;;;;;6.13;2.65;;;;;;;-0.57;100.00;100708.84;5082801;28;20111;-48
2021/12/06 04:10:26;;;;;;;5.38;3.35;;;;;;;-0.61;100.00;100707.44;5076132;28;20386;-51
2021/12/06 04:12:52;;;;;;;7.50;4.57;;;;;;;-0.63;100.00;100707.53;5082753;28;20550;-50
2021/12/06 04:15:18;;;;;;;3.42;2.42;;;;;;;-0.67;100.00;100706.09;5084005;28;20039;-53
2021/12/06 04:17:43;;;;;;;4.07;2.92;;;;;;;-0.69;100.00;100708.81;5084761;28;20032;-48
2021/12/06 04:20:11;;;;;;;5.78;2.30;;;;;;;-0.69;100.00;100708.00;5083202;28;20032;-53
2021/12/06 04:22:37;;;;;;;7.05;2.75;;;;;;;-0.70;100.00;100709.78;5079672;28;20035;-49
2021/12/06 04:25:07;;;;;;;7.85;3.63;;;;;;;-0.72;100.00;100706.44;5084067;28;20040;-50
2021/12/06 04:27:32;;;;;;;6.25;2.80;;;;;;;-0.75;100.00;100700.59;5088573;28;20032;-51
2021/12/06 04:29:57;;;;;;;4.82;2.65;;;;;;;-0.80;100.00;100700.13;5086128;28;20035;-54
2021/12/06 04:32:23;;;;;;;10.50;3.47;;;;;;;-0.84;100.00;100704.72;5086480;28;20028;-49
2021/12/06 04:34:49;;;;;;;6.85;3.38;;;;;;;-0.84;100.00;100715.13;5084433;28;20391;-50
2021/12/06 04:37:15;;;;;;;4.35;2.75;;;;;;;-0.82;100.00;100702.84;5084153;28;20569;-52
2021/12/06 04:39:41;;;;;;;9.63;2.80;;;;;;;-0.81;100.00;100704.50;5087462;28;20031;-50
2021/12/06 04:42:08;;;;;;;7.10;3.10;;;;;;;-0.75;100.00;100709.28;5082513;28;20051;-53
2021/12/06 04:44:34;;;;;;;7.30;3.35;;;;;;;-0.76;100.00;100706.78;5085471;28;20043;-51
2021/12/06 04:47:00;;;;;;;8.63;2.85;;;;;;;-0.74;100.00;100707.50;5083370;28;20044;-48
2021/12/06 04:49:28;;;;;;;5.78;3.33;;;;;;;-0.76;100.00;100706.78;5076646;28;20029;-54
2021/12/06 04:51:56;;;;;;;5.70;2.58;;;;;;;-0.78;100.00;100704.25;5081431;28;20878;-51
2021/12/06 04:54:26;;;;;;;6.78;3.15;;;;;;;-0.79;100.00;100692.19;5083276;28;20082;-53
2021/12/06 04:57:07;;;;;;;6.05;3.10;;;;;;;-0.77;100.00;100700.75;5083629;28;20040;-53
2021/12/06 04:59:40;;;;;;;8.30;3.33;;;;;;;-0.75;100.00;100685.84;5067011;28;20471;-51
2021/12/06 05:02:13;;;;;;;5.22;3.15;;;;;;;-0.73;100.00;100702.16;5086851;28;20111;-48
2021/12/06 05:04:47;;;;;;;5.57;3.28;;;;;;;-0.64;100.00;100700.66;5079681;28;20532;-48
2021/12/06 05:07:22;;;;;;;7.15;3.28;;;;;;;-0.58;100.00;100681.97;5067412;28;20028;-51
2021/12/06 05:09:49;;;;;;;8.40;2.83;;;;;;;-0.57;100.00;100680.19;5077403;28;20495;-53
2021/12/06 05:12:18;;;;;;;5.53;3.50;;;;;;;-0.56;100.00;100671.44;5084869;28;20043;-53
2021/12/06 05:14:44;;;;;;;4.93;3.05;;;;;;;-0.57;100.00;100659.34;5083649;28;20047;-54
2021/12/06 05:17:09;;;;;;;4.32;3.25;;;;;;;-0.57;100.00;100651.53;5085285;28;20024;-48
2021/12/06 05:19:36;;;;;;;8.23;3.72;;;;;;;-0.58;100.00;100660.31;5084658;28;20082;-51
2021/12/06 05:22:01;;;;;;;6.97;3.38;;;;;;;-0.60;100.00;100672.59;5066662;28;20028;-49
2021/12/06 05:24:27;;;;;;;10.27;2.88;;;;;;;-0.66;100.00;100681.72;5083373;28;20539;-49
2021/12/06 05:26:52;;;;;;;6.07;3.17;;;;;;;-0.68;100.00;100674.00;5075890;28;20036;-50
2021/12/06 05:29:24;;;;;;;7.28;4.20;;;;;;;-0.65;100.00;100667.75;5085939;28;20075;-49
2021/12/06 05:31:55;;;;;;;4.32;2.30;;;;;;;-0.63;100.00;100657.22;5082958;28;20121;-54
2021/12/06 05:34:28;;;;;;;12.02;3.97;;;;;;;-0.62;100.00;100658.88;5082901;28;20032;-50
2021/12/06 05:36:54;;;;;;;7.60;3.60;;;;;;;-0.60;100.00;100656.97;5081804;28;20484;-48
2021/12/06 05:39:19;;;;;;;6.38;3.97;;;;;;;-0.59;100.00;100645.63;5081966;28;20032;-50
2021/12/06 05:41:44;;;;;;;4.80;2.83;;;;;;;-0.61;100.00;100652.72;5084549;28;20035;-50
2021/12/06 05:44:10;;;;;;;10.43;3.17;;;;;;;-0.63;100.00;100649.41;5084672;28;20031;-54
2021/12/06 05:46:36;;;;;;;7.70;3.67;;;;;;;-0.64;100.00;100647.75;5084572;28;20028;-49
2021/12/06 05:49:01;;;;;;;7.78;3.90;;;;;;;-0.66;100.00;100651.28;5082186;28;20043;-51
2021/12/06 05:51:27;;;;;;;8.85;3.67;;;;;;;-0.64;100.00;100637.34;5066600;28;20020;-54
2021/12/06 05:53:52;;;;;;;8.35;3.95;;;;;;;-0.62;100.00;100625.88;5082070;28;20028;-52
2021/12/06 05:56:17;;;;;;;5.20;3.38;;;;;;;-0.60;100.00;100612.72;5080521;28;20082;-51
2021/12/06 05:58:43;;;;;;;5.60;3.03;;;;;;;-0.59;100.00;100617.00;5085464;28;20063;-52
2021/12/06 06:01:09;;;;;;;12.30;4.35;;;;;;;-0.57;100.00;100599.44;5084393;28;20520;-54
2021/12/06 06:03:34;;;;;;;8.77;4.13;;;;;;;-0.56;100.00;100599.34;5084647;28;20039;-49
2021/12/06 06:06:00;;;;;;;7.47;3.80;;;;;;;-0.55;100.00;100600.16;5084451;28;20479;-53
2021/12/06 06:08:25;;;;;;;4.75;2.95;;;;;;;-0.56;100.00;100601.94;5084049;28;20476;-51
2021/12/06 06:10:51;;;;;;;5.10;3.17;;;;;;;-0.57;100.00;100592.47;5082505;28;20202;-48
2021/12/06 06:13:18;;;;;;;8.00;2.78;;;;;;;-0.56;100.00;100596.75;5083271;28;21625;-51
2021/12/06 06:15:44;;;;;;;6.78;3.30;;;;;;;-0.57;100.00;100592.47;5081753;28;20032;-53
2021/12/06 06:18:09;;;;;;;13.23;4.07;;;;;;;-0.55;100.00;100600.16;5084051;28;20032;-48
2021/12/06 06:20:48;;;;;;;8.10;2.55;;;;;;;-0.52;100.00;100598.16;5083752;28;20431;-50
2021/12/06 06:23:13;;;;;;;10.52;3.25;;;;;;;-0.51;100.00;100599.81;5081175;28;20038;-51
2021/12/06 06:25:39;;;;;;;8.18;4.20;;;;;;;-0.48;100.00;100591.78;5081819;28;20036;-48
2021/12/06 06:28:05;;;;;;;10.32;3.78;;;;;;;-0.44;100.00;100574.13;5082379;28;20028;-52
2021/12/06 06:30:31;;;;;;;7.32;3.83;;;;;;;-0.42;100.00;100585.25;5077732;28;20469;-50
2021/12/06 06:32:57;;;;;;;5.63;3.05;;;;;;;-0.39;100.00;100581.59;5085376;28;20077;-49
2021/12/06 06:35:23;;;;;;;6.78;3.25;;;;;;;-0.37;100.00;100574.50;5074927;28;20036;-51
2021/12/06 06:37:49;;;;;;;8.32;4.13;;;;;;;-0.35;100.00;100567.38;5085552;28;20085;-51
2021/12/06 06:40:15;;;;;;;9.00;3.58;;;;;;;-0.33;100.00;100553.31;5075505;28;20036;-53
2021/12/06 06:42:42;;;;;;;7.40;4.13;;;;;;;-0.31;100.00;100555.78;5073183;28;20040;-53
2021/12/06 06:45:10;;;;;;;10.95;4.32;;;;;;;-0.29;100.00;100543.47;5082917;28;20032;-54
2021/12/06 06:47:36;;;;;;;8.50;3.15;;;;;;;-0.24;100.00;100533.50;5078606;28;20603;-51
2021/12/06 06:50:01;;;;;;;6.97;3.10;;;;;;;-0.19;100.00;100522.72;5080914;28;20028;-47
2021/12/06 06:52:26;;;;;;;7.60;3.70;;;;;;;-0.04;100.00;100522.34;5075808;28;20040;-52
2021/12/06 06:54:52;;;;;;;6.68;3.90;;;;;;;0.09;100.00;100509.16;5077979;28;20210;-53
2021/12/06 06:57:17;;;;;;;11.82;4.88;;;;;;;0.18;100.00;100508.44;5084148;28;20381;-50
2021/12/06 06:59:45;;;;;;;6.55;3.78;;;;;;;0.25;100.00;100518.38;5085494;28;20587;-53
2021/12/06 07:02:11;;;;;;;13.65;6.13;;;;;;;0.32;100.00;100519.53;5084189;28;20478;-52
2021/12/06 07:04:37;;;;;;;13.02;6.05;;;;;;;0.34;100.00;100508.03;5073703;28;20036;-49
2021/12/06 07:07:02;;;;;;;7.03;4.65;;;;;;;0.37;100.00;100510.38;5080080;28;20031;-47
2021/12/06 07:09:28;;;;;;;9.23;4.38;;;;;;;0.37;100.00;100496.50;5079847;28;20040;-51
2021/12/06 07:11:53;;;;;;;6.47;3.85;;;;;;;0.35;100.00;100496.63;5081070;28;20110;-53
2021/12/06 07:14:19;;;;;;;10.63;4.10;;;;;;;0.39;100.00;100503.25;5082413;28;20031;-49
2021/12/06 07:16:48;;;;;;;9.05;4.38;;;;;;;0.40;100.00;100498.88;5082920;28;20039;-54
2021/12/06 07:19:14;;;;;;;12.73;4.60;;;;;;;0.41;100.00;100497.91;5075637;28;20036;-48
2021/12/06 07:21:40;;;;;;;9.63;4.53;;;;;;;0.42;100.00;100504.78;5081411;28;20136;-53
2021/12/06 07:24:05;;;;;;;7.25;4.22;;;;;;;0.43;100.00;100512.47;5079878;28;20119;-56
2021/12/06 07:26:31;;;;;;;13.18;5.03;;;;;;;0.48;100.00;100511.28;5081490;28;20476;-50
2021/12/06 07:28:57;;;;;;;3.78;3.10;;;;;;;0.49;100.00;100503.34;5077315;28;20037;-48
2021/12/06 07:31:23;;;;;;;9.82;3.55;;;;;;;0.51;100.00;100513.63;5081537;28;20388;-51
2021/12/06 07:33:50;;;;;;;8.60;3.17;;;;;;;0.53;100.00;100532.63;5082985;28;20036;-53
2021/12/06 07:36:16;;;;;;;14.43;4.68;;;;;;;0.55;100.00;100513.28;5079555;28;20032;-51
2021/12/06 07:38:42;;;;;;;8.85;4.47;;;;;;;0.57;100.00;100510.56;5081447;28;20465;-51
2021/12/06 07:41:11;;;;;;;5.22;3.10;;;;;;;0.59;100.00;100496.38;5080460;28;20473;-51
2021/12/06 07:43:37;;;;;;;5.90;3.17;;;;;;;0.60;100.00;100495.47;5077824;28;20051;-50
2021/12/06 07:46:04;;;;;;;5.55;2.92;;;;;;;0.60;100.00;100503.28;5077227;28;20065;-51
2021/12/06 07:48:30;;;;;;;4.65;3.25;;;;;;;0.61;100.00;100511.94;5081985;28;20376;-53
2021/12/06 07:50:55;;;;;;;4.07;2.90;;;;;;;0.61;100.00;100499.72;5083140;28;20040;-49
2021/12/06 07:53:21;;;;;;;8.90;3.97;;;;;;;0.59;100.00;100492.97;5084417;28;20107;-48
2021/12/06 07:55:46;;;;;;;6.28;2.38;;;;;;;0.58;100.00;100484.31;5080919;28;20408;-48
2021/12/06 07:58:12;;;;;;;4.57;2.75;;;;;;;0.58;100.00;100486.09;5082064;28;20032;-50
2021/12/06 08:00:43;;;;;;;5.80;2.90;;;;;;;0.58;100.00;100486.91;5085439;28;20082;-50
2021/12/06 08:03:09;;;;;;;4.20;2.88;;;;;;;0.58;100.00;100484.31;5078062;28;20658;-51
2021/12/06 08:05:37;;;;;;;6.75;3.00;;;;;;;0.60;100.00;100484.19;5081839;28;20181;-50
2021/12/06 08:08:10;;;;;;;5.40;2.40;;;;;;;0.60;100.00;100482.41;5081372;28;20431;-50
2021/12/06 08:10:40;;;;;;;7.60;2.00;;;;;;;0.61;100.00;100480.63;5078130;28;20024;-50
2021/12/06 08:13:06;;;;;;;7.18;2.70;;;;;;;0.62;100.00;100477.91;5077746;28;20039;-51
2021/12/06 08:15:32;;;;;;;4.40;2.47;;;;;;;0.67;100.00;100481.88;5079121;28;20025;-49
2021/12/06 08:17:58;;;;;;;3.30;2.10;;;;;;;0.69;100.00;100480.00;5086189;28;20088;-48
2021/12/06 08:20:23;;;;;;;2.88;1.65;;;;;;;0.73;100.00;100468.34;5078407;28;20114;-48
2021/12/06 08:22:49;;;;;;;3.70;1.60;;;;;;;0.74;100.00;100465.59;5086955;28;20088;-48
2021/12/06 08:25:16;;;;;;;10.90;3.83;;;;;;;0.77;100.00;100448.84;5084925;28;20036;-52
2021/12/06 08:27:42;;;;;;;2.53;2.30;;;;;;;0.78;100.00;100440.91;5080071;28;20077;-50
2021/12/06 08:30:09;;;;;;;7.75;2.85;;;;;;;0.80;100.00;100438.16;5078883;28;20527;-51
2021/12/06 08:32:35;;;;;;;6.32;2.00;;;;;;;0.84;100.00;100431.72;5076594;28;20413;-48
2021/12/06 08:35:01;;;;;;;5.75;2.42;;;;;;;0.91;100.00;100417.22;5077592;28;20111;-51
2021/12/06 08:37:27;;;;;;;6.15;2.10;;;;;;;0.95;100.00;100405.53;5075744;28;20543;-50
2021/12/06 08:39:53;;;;;;;7.65;2.03;;;;;;;1.01;100.00;100391.97;5076701;28;20036;-50
2021/12/06 08:42:19;;;;;;;6.72;2.47;;;;;;;1.02;100.00;100385.78;5068119;28;20428;-49
2021/12/06 08:44:44;;;;;;;3.70;2.38;;;;;;;1.05;100.00;100374.25;5087224;28;20040;-52
2021/12/06 08:47:09;;;;;;;3.72;2.67;;;;;;;1.09;100.00;100376.47;5079591;28;20040;-51
2021/12/06 08:49:35;;;;;;;7.75;2.20;;;;;;;1.15;100.00;100376.91;5073616;28;20408;-51
2021/12/06 08:52:02;;;;;;;1.90;1.25;;;;;;;1.18;100.00;100381.84;5076257;28;20045;-50
2021/12/06 08:54:29;;;;;;;10.50;1.70;;;;;;;1.20;100.00;100377.31;5087369;28;20093;-50
2021/12/06 08:57:01;;;;;;;4.75;2.00;;;;;;;1.20;100.00;100362.47;5082171;28;20447;-50
2021/12/06 08:59:26;;;;;;;3.83;1.92;;;;;;;1.24;100.00;100368.25;5079562;28;20046;-52
2021/12/06 09:01:54;;;;;;;9.32;2.75;;;;;;;1.26;100.00;100368.94;5081785;28;20036;-50
2021/12/06 09:04:20;;;;;;;6.15;2.03;;;;;;;1.31;100.00;100367.56;5086947;28;20085;-51
2021/12/06 09:06:50;;;;;;;3.63;1.33;;;;;;;1.34;100.00;100370.88;5088187;28;20035;-53
2021/12/06 09:09:15;;;;;;;2.42;1.88;;;;;;;1.36;100.00;100367.19;5082829;28;20024;-51
2021/12/06 09:11:42;;;;;;;5.10;1.80;;;;;;;1.38;100.00;100369.69;5077320;28;20445;-50
2021/12/06 09:14:08;;;;;;;6.18;2.53;;;;;;;1.39;100.00;100358.25;5087510;28;20480;-53
2021/12/06 09:16:36;;;;;;;9.30;2.67;;;;;;;1.40;100.00;100350.28;5080165;28;20039;-54
2021/12/06 09:19:03;;;;;;;8.93;1.90;;;;;;;1.41;100.00;100346.69;5087373;28;20058;-48
2021/12/06 09:21:29;;;;;;;3.42;2.50;;;;;;;1.43;100.00;100342.19;5084752;28;20032;-52
2021/12/06 09:23:55;;;;;;;4.82;2.05;;;;;;;1.47;100.00;100338.34;5086972;28;20346;-50
2021/12/06 09:26:21;;;;;;;3.63;1.60;;;;;;;1.51;100.00;100329.25;5087744;28;20035;-52
2021/12/06 09:28:47;;;;;;;2.30;1.45;;;;;;;1.57;100.00;100334.91;5084078;28;20029;-50
2021/12/06 09:31:15;;;;;;;3.05;1.52;;;;;;;1.64;100.00;100328.16;5081949;28;20028;-51
2021/12/06 09:33:40;;;;;;;7.55;1.75;;;;;;;1.67;100.00;100325.28;5077250;28;20031;-52
2021/12/06 09:36:06;;;;;;;6.15;1.08;;;;;;;1.71;100.00;100314.41;5086837;28;20089;-48
2021/12/06 09:38:39;;;;;;;2.78;1.67;;;;;;;1.74;100.00;100313.31;5085540;28;20112;-51
2021/12/06 09:41:27;;;;;;;3.25;1.20;;;;;;;1.82;100.00;100312.63;5084390;28;20073;-54
2021/12/06 09:43:57;;;;;;;7.07;1.92;;;;;;;1.92;100.00;100303.00;5084555;28;20749;-52
2021/12/06 09:46:23;;;;;;;4.72;1.50;;;;;;;2.04;100.00;100299.25;5086880;28;20063;-52
2021/12/06 09:48:49;;;;;;;8.98;2.88;;;;;;;2.10;100.00;100303.09;5082205;28;20056;-53
2021/12/06 09:51:22;;;;;;;6.15;1.75;;;;;;;2.10;100.00;100297.88;5080911;28;20066;-49
2021/12/06 09:53:50;;;;;;;7.50;1.80;;;;;;;2.09;100.00;100302.28;5080908;28;20473;-53
2021/12/06 09:56:22;;;;;;;3.50;2.60;;;;;;;2.08;100.00;100307.66;5072566;28;20111;-49
2021/12/06 09:58:48;;;;;;;5.10;1.67;;;;;;;2.08;100.00;100305.03;5069077;28;20028;-54
2021/12/06 10:01:22;;;;;;;7.75;2.47;;;;;;;2.06;100.00;100294.69;5083409;28;20500;-54
2021/12/06 10:03:49;;;;;;;5.63;1.70;;;;;;;2.06;100.00;100286.03;5081595;28;20119;-51
2021/12/06 10:06:16;;;;;;;4.22;1.83;;;;;;;2.07;100.00;100282.47;5088020;28;20085;-49
2021/12/06 10:08:44;;;;;;;4.45;1.92;;;;;;;2.08;100.00;100273.63;5083542;28;20051;-51
2021/12/06 10:11:12;;;;;;;2.60;1.73;;;;;;;2.13;100.00;100267.00;5086591;28;20076;-52
2021/12/06 10:13:39;;;;;;;3.05;1.42;;;;;;;2.16;100.00;100263.28;5080180;28;20030;-49
2021/12/06 10:16:06;;;;;;;4.35;1.95;;;;;;;2.19;100.00;100265.63;5084967;28;20089;-53
2021/12/06 10:18:33;;;;;;;3.80;2.17;;;;;;;2.19;100.00;100257.78;5067329;28;20488;-52
2021/12/06 10:20:59;;;;;;;5.72;2.08;;;;;;;2.19;100.00;100255.16;5079066;28;20028;-49
2021/12/06 10:23:24;;;;;;;3.88;1.75;;;;;;;2.18;100.00;100259.56;5084907;28;20073;-52
2021/12/06 10:25:52;;;;;;;2.88;1.92;;;;;;;2.18;100.00;100246.50;5086646;28;20029;-54
2021/12/06 10:28:20;;;;;;;2.05;0.88;;;;;;;2.16;100.00;100239.75;5085233;28;20020;-50
2021/12/06 10:30:54;;;;;;;6.28;2.13;;;;;;;2.14;100.00;100225.97;5057468;28;20442;-54
2021/12/06 10:33:22;;;;;;;6.25;2.08;;;;;;;2.14;100.00;100225.97;5074593;28;20098;-53
2021/12/06 10:35:51;;;;;;;6.70;2.92;;;;;;;2.14;100.00;100215.53;5082309;28;20112;-51
2021/12/06 10:38:24;;;;;;;5.25;2.25;;;;;;;2.13;100.00;100211.28;5075593;28;20113;-50
2021/12/06 10:40:55;;;;;;;3.40;2.15;;;;;;;2.13;100.00;100206.84;5081892;28;20403;-50
2021/12/06 10:43:20;;;;;;;2.95;1.25;;;;;;;2.17;100.00;100202.19;5080095;28;20021;-51
2021/12/06 10:45:48;;;;;;;4.68;1.40;;;;;;;2.20;100.00;100182.75;5081896;28;20039;-50
2021/12/06 10:48:23;;;;;;;2.22;1.52;;;;;;;2.21;100.00;100172.13;5082741;28;20028;-51
2021/12/06 10:50:51;;;;;;;2.90;1.25;;;;;;;2.25;100.00;100159.59;5081343;28;20035;-50
2021/12/06 10:53:23;;;;;;;2.45;1.13;;;;;;;2.31;100.00;100136.28;5081296;28;20388;-50
2021/12/06 10:55:51;;;;;;;2.83;0.93;;;;;;;2.37;100.00;100122.59;5086000;28;20032;-51
2021/12/06 10:58:20;;;;;;;3.83;2.10;;;;;;;2.45;100.00;100107.97;5084590;28;20033;-47
2021/12/06 11:00:53;;;;;;;1.73;1.40;;;;;;;2.51;100.00;100102.97;5085528;28;20031;-50
2021/12/06 11:03:32;;;;;;;5.28;1.83;;;;;;;2.60;100.00;100093.41;5085173;28;20430;-47
2021/12/06 11:06:03;;;;;;;7.90;1.42;;;;;;;2.64;100.00;100081.69;5082094;28;20031;-50
2021/12/06 11:08:30;;;;;;;2.20;1.02;;;;;;;2.68;100.00;100069.91;5083127;28;20824;-47
2021/12/06 11:10:59;;;;;;;2.75;2.55;;;;;;;2.74;100.00;100058.06;5085131;28;20032;-50
2021/12/06 11:13:34;;;;;;;7.35;2.28;;;;;;;2.78;100.00;100054.13;5085307;28;20028;-50
2021/12/06 11:16:22;;;;;;;3.67;0.90;;;;;;;2.83;100.00;100047.47;5080236;28;20130;-50
2021/12/06 11:18:54;;;;;;;9.10;2.25;;;;;;;2.88;100.00;100035.72;5080283;28;20024;-52
2021/12/06 11:21:41;;;;;;;1.48;0.82;;;;;;;2.90;100.00;100026.75;5077593;28;20514;-49
2021/12/06 11:24:13;;;;;;;4.20;1.65;;;;;;;2.93;100.00;100029.06;5076182;28;20032;-50
2021/12/06 11:26:51;;;;;;;3.45;1.90;;;;;;;3.00;100.00;100013.56;5081354;28;20035;-49
2021/12/06 11:29:23;;;;;;;11.32;2.28;;;;;;;3.05;100.00;99988.56;5084587;28;20055;-54
2021/12/06 11:32:12;;;;;;;2.80;1.13;;;;;;;3.09;100.00;99996.09;5076619;28;20173;-50
2021/12/06 11:34:43;;;;;;;1.27;0.80;;;;;;;3.09;100.00;99983.81;5078063;28;20036;-48
2021/12/06 11:37:16;;;;;;;1.80;0.32;;;;;;;3.08;100.00;99979.56;5076841;28;20601;-47
2021/12/06 11:39:44;;;;;;;0.28;0.05;;;;;;;3.02;100.00;99973.16;5085022;28;20036;-48